aviador You're here:

KIZG Decoded Metar

FRYEBURG in ME, USA
Report Time2018-07-23 14:54:00
UTC Time2018-07-23 15:39:37
Flight Rules ifr IFR
Wind130° at 05 kt
W.Decomp.*RWY 14: 5.0 kt HW 0.6 kt RCW
W.Rank130° ranks 25
Current wind is below 130° avg. (5.0)
Visibility9999 m
Phenomena:N/A
Clouds:Overcast 007 Hf
Ceiling700 ft
Temp23°C (ISA +9)
Dew Point23°C (100% RH)
QNH1025 hPa
Density Alt1,444 ft
Elevation443 ft
Report Wrong Elevation
Raw Report
KIZG 231454Z AUTO 13005KT 10SM OVC007 23/23 A3027 RMK AO2 CIG
005V011 SLP248 P0001 60001 T02330233 51003=

Extra information for KIZG:More info

Metar Taf Metar & Taf Last 4 Metars F.Rules Stats Wind Profile Meteogram Temp Stats Airport Information Weather charts Add Link Nearby VenuesMetar ALERT Operation Metar Decoded Social comments

AIRNAV info for KIZG